createdAt,value
2023-03-15T00:00:15.183Z,18.00
2023-03-15T00:00:47.256Z,18.00
2023-03-15T00:01:21.449Z,18.00
2023-03-15T00:01:54.592Z,17.00
2023-03-15T00:02:26.415Z,17.00
2023-03-15T00:02:58.124Z,17.00
2023-03-15T00:03:29.968Z,17.67
2023-03-15T00:04:02.182Z,17.00
2023-03-15T00:04:33.949Z,17.00
2023-03-15T00:05:06.089Z,17.00
2023-03-15T00:05:42.011Z,17.00
2023-03-15T00:06:14.508Z,17.00
2023-03-15T00:06:46.254Z,17.00
2023-03-15T00:07:17.982Z,17.00
2023-03-15T00:07:49.683Z,17.00
2023-03-15T00:08:24.381Z,17.00
2023-03-15T00:08:56.103Z,16.00
2023-03-15T00:09:28.428Z,16.00
2023-03-15T00:10:00.142Z,16.00
2023-03-15T00:10:31.893Z,16.00
2023-03-15T00:11:04.380Z,16.00
2023-03-15T00:11:36.118Z,16.00
2023-03-15T00:12:08.121Z,15.00
2023-03-15T00:12:42.760Z,15.00
2023-03-15T00:13:16.100Z,15.00
2023-03-15T00:13:47.846Z,15.00
2023-03-15T00:14:19.621Z,15.00
2023-03-15T00:14:51.608Z,15.00
2023-03-15T00:15:23.396Z,15.00
2023-03-15T00:15:58.606Z,15.00
2023-03-15T00:16:32.802Z,15.00
2023-03-15T00:17:04.608Z,15.00
2023-03-15T00:17:36.378Z,15.00
2023-03-15T00:18:08.066Z,14.67
2023-03-15T00:18:39.844Z,14.00
2023-03-15T00:19:12.225Z,14.00
2023-03-15T00:19:44.085Z,14.00
2023-03-15T00:20:16.251Z,14.00
2023-03-15T00:20:48.450Z,14.00
2023-03-15T00:21:21.229Z,14.00
2023-03-15T00:21:52.957Z,14.00
2023-03-15T00:22:24.707Z,14.00
2023-03-15T00:22:56.421Z,14.00
2023-03-15T00:23:28.311Z,14.00
2023-03-15T00:24:00.116Z,14.00
2023-03-15T00:24:31.828Z,14.00
2023-03-15T00:25:04.014Z,14.00
2023-03-15T00:25:36.153Z,14.00
2023-03-15T00:26:07.854Z,14.00
2023-03-15T00:26:39.601Z,14.00
2023-03-15T00:27:11.416Z,14.00
2023-03-15T00:27:44.075Z,14.00
2023-03-15T00:28:16.756Z,13.00
2023-03-15T00:28:48.507Z,13.00
2023-03-15T00:29:20.629Z,13.00
2023-03-15T00:29:52.396Z,13.00
2023-03-15T00:30:24.180Z,13.00
2023-03-15T00:31:09.439Z,13.00
2023-03-15T00:31:41.226Z,13.00
2023-03-15T00:32:13.063Z,13.00
2023-03-15T00:32:44.978Z,13.00
2023-03-15T00:33:17.326Z,13.00
2023-03-15T00:33:49.618Z,13.00
2023-03-15T00:34:24.620Z,13.00
2023-03-15T00:34:56.431Z,13.00
2023-03-15T00:35:28.204Z,13.00
2023-03-15T00:36:00.066Z,13.00
2023-03-15T00:36:33.071Z,13.00
2023-03-15T00:37:04.839Z,13.00
2023-03-15T00:37:37.660Z,13.00
2023-03-15T00:38:10.230Z,13.00
2023-03-15T00:38:44.268Z,13.00
2023-03-15T00:39:16.408Z,13.00
2023-03-15T00:39:48.763Z,13.00
2023-03-15T00:40:21.078Z,13.00
2023-03-15T00:40:52.865Z,12.00
2023-03-15T00:41:25.151Z,12.00
2023-03-15T00:41:57.119Z,12.00
2023-03-15T00:42:29.042Z,11.67
2023-03-15T00:43:00.802Z,11.00
2023-03-15T00:43:32.491Z,11.00
2023-03-15T00:44:04.507Z,11.00
2023-03-15T00:44:36.211Z,11.00
2023-03-15T00:45:08.717Z,11.00
2023-03-15T00:45:40.591Z,11.00
2023-03-15T00:46:12.954Z,11.00
2023-03-15T00:46:44.741Z,11.00
2023-03-15T00:47:16.539Z,11.00
2023-03-15T00:47:52.364Z,11.00
2023-03-15T00:48:24.286Z,11.00
2023-03-15T00:48:56.357Z,11.00
2023-03-15T00:49:28.051Z,11.00
2023-03-15T00:49:59.752Z,11.00
2023-03-15T00:50:31.513Z,11.00
2023-03-15T00:51:15.485Z,11.00
2023-03-15T00:51:47.222Z,11.00
2023-03-15T00:52:19.212Z,11.00
2023-03-15T00:52:51.042Z,11.00
2023-03-15T00:53:22.727Z,10.00
2023-03-15T00:53:54.533Z,10.00
2023-03-15T00:54:26.287Z,10.00
2023-03-15T00:54:58.028Z,9.33
2023-03-15T00:55:30.032Z,9.00
2023-03-15T00:56:30.089Z,9.00
2023-03-15T00:57:02.772Z,8.00
2023-03-15T00:57:34.706Z,8.00
2023-03-15T00:58:06.478Z,8.00
2023-03-15T00:58:39.036Z,8.00
2023-03-15T00:59:10.760Z,7.33
2023-03-15T00:59:45.047Z,7.00
2023-03-15T01:00:23.413Z,7.00
2023-03-15T01:00:55.118Z,7.00
2023-03-15T01:01:29.244Z,7.00
2023-03-15T01:02:02.692Z,7.00
2023-03-15T01:02:34.473Z,7.00
2023-03-15T01:03:06.294Z,7.00
2023-03-15T01:03:38.954Z,7.00
2023-03-15T01:04:14.068Z,7.00
2023-03-15T01:04:45.798Z,7.00
2023-03-15T01:05:17.680Z,7.00
2023-03-15T01:05:49.462Z,7.00
2023-03-15T01:06:24.635Z,7.00
2023-03-15T01:06:56.452Z,7.00
2023-03-15T01:07:28.217Z,7.00
2023-03-15T01:07:59.948Z,7.00
2023-03-15T01:08:31.660Z,7.00
2023-03-15T01:09:04.169Z,7.00
2023-03-15T01:09:36.039Z,7.00
2023-03-15T01:10:08.703Z,7.00
2023-03-15T01:10:40.476Z,7.00
2023-03-15T01:11:15.204Z,7.00
2023-03-15T01:11:46.947Z,7.00
2023-03-15T01:12:18.688Z,7.00
2023-03-15T01:12:50.469Z,7.00
2023-03-15T01:13:22.211Z,7.00
2023-03-15T01:13:56.150Z,7.00
2023-03-15T01:14:27.896Z,7.00
2023-03-15T01:15:00.713Z,7.00
2023-03-15T01:15:32.433Z,7.00
2023-03-15T01:16:05.051Z,7.00
2023-03-15T01:16:36.882Z,7.00
2023-03-15T01:17:08.782Z,7.00
2023-03-15T01:17:41.739Z,7.00
2023-03-15T01:18:13.580Z,7.00
2023-03-15T01:18:45.407Z,7.00
2023-03-15T01:19:17.406Z,7.00
2023-03-15T01:19:49.497Z,7.00
2023-03-15T01:20:21.221Z,7.00
2023-03-15T01:20:53.016Z,7.00
2023-03-15T01:21:24.900Z,7.00
2023-03-15T01:21:56.679Z,7.00
2023-03-15T01:22:28.458Z,7.67
2023-03-15T01:23:00.165Z,8.00
2023-03-15T01:23:31.910Z,8.00
2023-03-15T01:24:03.801Z,8.00
2023-03-15T01:24:35.663Z,8.00
2023-03-15T01:25:09.377Z,8.00
2023-03-15T01:25:41.202Z,8.00
2023-03-15T01:26:15.457Z,8.00
2023-03-15T01:26:47.191Z,8.00
2023-03-15T01:27:18.921Z,9.00
2023-03-15T01:27:50.611Z,9.00
2023-03-15T01:28:22.291Z,9.00
2023-03-15T01:28:55.185Z,9.00
2023-03-15T01:29:27.577Z,9.00
2023-03-15T01:29:59.257Z,9.00
2023-03-15T01:30:31.081Z,9.00
2023-03-15T01:31:03.126Z,9.00
2023-03-15T01:31:35.015Z,9.00
2023-03-15T01:32:07.343Z,9.00
2023-03-15T01:32:39.287Z,9.00
2023-03-15T01:33:10.987Z,9.00
2023-03-15T01:33:42.738Z,9.00
2023-03-15T01:34:14.488Z,9.00
2023-03-15T01:34:46.290Z,9.00
2023-03-15T01:35:17.988Z,9.00
2023-03-15T01:36:02.500Z,9.00
2023-03-15T01:36:34.310Z,9.00
2023-03-15T01:37:06.150Z,9.00
2023-03-15T01:37:37.879Z,9.00
2023-03-15T01:38:09.669Z,9.00
2023-03-15T01:38:42.375Z,9.00
2023-03-15T01:39:14.309Z,10.00
2023-03-15T01:39:48.818Z,10.00
2023-03-15T01:40:20.609Z,10.00
2023-03-15T01:40:52.912Z,10.00
2023-03-15T01:41:26.028Z,10.00
2023-03-15T01:41:58.090Z,10.00
2023-03-15T01:42:29.828Z,10.00
2023-03-15T01:43:04.411Z,10.00
2023-03-15T01:43:36.109Z,10.00
2023-03-15T01:44:13.936Z,10.00
2023-03-15T01:44:57.967Z,10.00
2023-03-15T01:45:51.417Z,10.00
2023-03-15T01:46:34.958Z,10.00
2023-03-15T01:47:06.868Z,10.00
2023-03-15T01:47:38.636Z,10.00
2023-03-15T01:48:11.196Z,10.00
2023-03-15T01:49:13.944Z,10.00
2023-03-15T01:49:51.891Z,10.00
2023-03-15T01:50:25.509Z,10.00
2023-03-15T01:50:59.828Z,10.33
2023-03-15T01:51:37.567Z,11.00
2023-03-15T01:52:15.054Z,11.00
2023-03-15T01:52:47.071Z,11.00
2023-03-15T01:53:18.906Z,11.00
2023-03-15T01:54:01.515Z,11.00
2023-03-15T01:55:10.199Z,11.00
2023-03-15T01:55:42.366Z,11.00
2023-03-15T01:56:15.769Z,11.00
2023-03-15T01:57:10.742Z,11.00
2023-03-15T01:57:49.885Z,11.00
2023-03-15T01:58:26.106Z,11.00
2023-03-15T01:59:01.668Z,11.00
2023-03-15T01:59:37.926Z,11.00
2023-03-15T02:00:13.532Z,11.00
2023-03-15T02:00:45.733Z,11.00
2023-03-15T02:01:18.899Z,11.00
2023-03-15T02:01:54.598Z,11.00
2023-03-15T02:02:26.581Z,11.00
2023-03-15T02:03:31.096Z,11.00
2023-03-15T02:04:09.671Z,12.00
2023-03-15T02:04:48.223Z,12.00
2023-03-15T02:05:29.341Z,12.00
2023-03-15T02:06:07.270Z,12.00
2023-03-15T02:06:39.213Z,12.00
2023-03-15T02:07:11.180Z,12.00
2023-03-15T02:07:50.043Z,12.00
2023-03-15T02:08:25.885Z,12.00
2023-03-15T02:09:04.662Z,12.00
2023-03-15T02:09:48.169Z,12.00
2023-03-15T02:10:51.082Z,12.00
2023-03-15T02:11:25.343Z,12.00
2023-03-15T02:11:58.087Z,12.00
2023-03-15T02:12:33.693Z,12.00
2023-03-15T02:13:07.345Z,12.00
2023-03-15T02:13:39.462Z,12.00
2023-03-15T02:14:13.245Z,12.00
2023-03-15T02:14:46.627Z,13.00
2023-03-15T02:15:18.760Z,13.00
2023-03-15T02:15:53.507Z,13.00
2023-03-15T02:16:25.821Z,13.00
2023-03-15T02:16:57.707Z,13.00
2023-03-15T02:17:38.259Z,13.00
2023-03-15T02:18:10.002Z,13.00
2023-03-15T02:18:41.778Z,13.00
2023-03-15T02:19:41.950Z,13.00
2023-03-15T02:20:31.591Z,13.00
2023-03-15T02:21:26.778Z,13.00
2023-03-15T02:22:14.551Z,13.00
2023-03-15T02:22:58.843Z,13.00
2023-03-15T02:23:32.126Z,13.00
2023-03-15T02:24:31.331Z,13.00
2023-03-15T02:25:17.187Z,13.00
2023-03-15T02:25:48.989Z,13.00
2023-03-15T02:26:24.963Z,13.00
2023-03-15T02:26:58.152Z,13.00
2023-03-15T02:27:34.634Z,13.00
2023-03-15T02:28:10.309Z,13.00
2023-03-15T02:28:42.874Z,13.00
2023-03-15T02:29:15.070Z,13.00
2023-03-15T02:29:46.831Z,13.00
2023-03-15T02:30:18.920Z,13.00
2023-03-15T02:30:51.280Z,13.00
2023-03-15T02:31:23.117Z,13.00
2023-03-15T02:31:56.336Z,13.00
2023-03-15T02:32:28.237Z,13.00
2023-03-15T02:33:03.011Z,13.00
2023-03-15T02:33:44.130Z,13.00
2023-03-15T02:34:16.025Z,13.67
2023-03-15T02:34:47.773Z,14.67
2023-03-15T02:35:32.329Z,15.00
2023-03-15T02:36:15.899Z,15.00
2023-03-15T02:36:47.622Z,15.67
2023-03-15T02:37:19.368Z,16.00
2023-03-15T02:37:51.099Z,16.00
2023-03-15T02:38:22.843Z,16.00
2023-03-15T02:38:56.397Z,16.00
2023-03-15T02:39:28.090Z,16.00
2023-03-15T02:39:59.816Z,16.00
2023-03-15T02:40:31.744Z,16.00
2023-03-15T02:41:04.775Z,16.00
2023-03-15T02:41:43.973Z,16.00
2023-03-15T02:42:17.210Z,16.00
2023-03-15T02:42:53.498Z,16.00
2023-03-15T02:43:31.391Z,16.00
2023-03-15T02:44:14.584Z,16.33
2023-03-15T02:44:49.184Z,17.00
2023-03-15T02:45:22.700Z,17.00
2023-03-15T02:45:55.629Z,17.00
2023-03-15T02:46:28.175Z,17.00
2023-03-15T02:47:06.117Z,17.00
2023-03-15T02:47:39.703Z,17.00
2023-03-15T02:48:12.302Z,17.00
2023-03-15T02:48:48.042Z,17.00
2023-03-15T02:49:23.796Z,17.67
2023-03-15T02:49:55.662Z,18.00
2023-03-15T02:50:27.587Z,18.00
2023-03-15T02:50:59.809Z,18.00
2023-03-15T02:51:34.313Z,18.00
2023-03-15T02:52:06.948Z,18.00
2023-03-15T02:52:38.734Z,18.00
2023-03-15T02:53:12.405Z,18.00
2023-03-15T02:53:44.215Z,18.00
2023-03-15T02:54:16.715Z,18.00
2023-03-15T02:54:48.560Z,18.00
2023-03-15T02:55:21.862Z,18.00
2023-03-15T02:55:53.619Z,18.33
2023-03-15T02:56:25.429Z,19.00
2023-03-15T02:56:57.175Z,19.00
2023-03-15T02:57:29.295Z,19.00
2023-03-15T02:58:02.261Z,19.00
2023-03-15T02:58:33.957Z,19.00
2023-03-15T02:59:05.738Z,19.00
2023-03-15T02:59:37.898Z,19.00
2023-03-15T03:00:16.157Z,19.00
2023-03-15T03:00:47.912Z,19.00
2023-03-15T03:01:20.059Z,19.00
2023-03-15T03:01:51.883Z,19.00
2023-03-15T03:02:24.150Z,19.00
2023-03-15T03:02:56.057Z,19.00
2023-03-15T03:03:27.834Z,19.00
2023-03-15T03:03:59.935Z,19.00
2023-03-15T03:04:31.849Z,19.00
2023-03-15T03:05:03.735Z,19.00
2023-03-15T03:05:35.507Z,19.00
2023-03-15T03:06:08.235Z,19.00
2023-03-15T03:06:39.922Z,19.00
2023-03-15T03:07:11.634Z,19.00
2023-03-15T03:07:43.910Z,19.00
2023-03-15T03:08:16.676Z,19.00
2023-03-15T03:08:48.555Z,19.00
2023-03-15T03:09:20.609Z,19.00
2023-03-15T03:09:52.425Z,19.00
2023-03-15T03:10:24.510Z,19.00
2023-03-15T03:10:56.227Z,19.00
2023-03-15T03:11:28.057Z,19.67
2023-03-15T03:12:00.371Z,21.33
2023-03-15T03:12:33.274Z,22.00
2023-03-15T03:13:04.947Z,22.67
2023-03-15T03:13:36.637Z,23.00
2023-03-15T03:14:08.371Z,23.00
2023-03-15T03:14:40.104Z,23.00
2023-03-15T03:15:12.020Z,22.33
2023-03-15T03:15:45.609Z,22.00
2023-03-15T03:16:17.328Z,22.00
2023-03-15T03:16:49.264Z,22.00
2023-03-15T03:17:20.991Z,22.00
2023-03-15T03:17:54.616Z,22.00
2023-03-15T03:18:35.745Z,21.00
2023-03-15T03:19:07.507Z,21.00
2023-03-15T03:19:39.270Z,21.00
2023-03-15T03:20:13.680Z,21.00
2023-03-15T03:20:46.216Z,21.00
2023-03-15T03:21:18.034Z,21.00
2023-03-15T03:21:49.768Z,21.00
2023-03-15T03:22:24.617Z,21.00
2023-03-15T03:22:56.400Z,20.33
2023-03-15T03:23:28.613Z,20.00
2023-03-15T03:24:00.662Z,20.00
2023-03-15T03:24:32.547Z,20.00
2023-03-15T03:25:06.443Z,20.00
2023-03-15T03:25:38.291Z,20.00
2023-03-15T03:26:18.771Z,20.00
2023-03-15T03:26:50.471Z,20.00
2023-03-15T03:27:22.215Z,20.00
2023-03-15T03:27:57.405Z,20.00
2023-03-15T03:28:31.145Z,20.00
2023-03-15T03:29:02.931Z,20.00
2023-03-15T03:29:34.679Z,20.00
2023-03-15T03:30:09.938Z,20.00
2023-03-15T03:30:41.701Z,20.00
2023-03-15T03:31:33.866Z,20.00
2023-03-15T03:32:05.611Z,20.33
2023-03-15T03:32:37.513Z,21.00
2023-03-15T03:33:09.369Z,21.00
2023-03-15T03:33:41.062Z,21.00
2023-03-15T03:34:15.641Z,21.00
2023-03-15T03:34:48.571Z,21.00
2023-03-15T03:35:20.365Z,21.00
2023-03-15T03:35:52.249Z,22.00
2023-03-15T03:36:24.999Z,22.00
2023-03-15T03:36:57.047Z,22.00
2023-03-15T03:37:30.972Z,22.00
2023-03-15T03:38:02.770Z,22.00
2023-03-15T03:38:34.555Z,22.00
2023-03-15T03:39:06.342Z,22.00
2023-03-15T03:39:38.033Z,22.00
2023-03-15T03:40:11.615Z,22.00
2023-03-15T03:40:43.362Z,22.33
2023-03-15T03:41:15.332Z,22.00
2023-03-15T03:41:47.128Z,22.00
2023-03-15T03:42:18.866Z,22.00
2023-03-15T03:42:50.567Z,22.00
2023-03-15T03:43:22.376Z,22.00
2023-03-15T03:43:54.129Z,22.00
2023-03-15T03:44:25.849Z,22.00
2023-03-15T03:44:57.628Z,22.00
2023-03-15T03:45:29.333Z,22.00
2023-03-15T03:46:01.474Z,22.00
2023-03-15T03:46:33.697Z,22.00
2023-03-15T03:47:05.668Z,22.00
2023-03-15T03:47:37.508Z,22.00
2023-03-15T03:48:09.282Z,21.33
2023-03-15T03:48:40.984Z,21.00
2023-03-15T03:49:13.189Z,21.00
2023-03-15T03:49:44.943Z,21.67
2023-03-15T03:50:16.721Z,22.00
2023-03-15T03:50:48.478Z,22.00
2023-03-15T03:51:20.579Z,22.00
2023-03-15T03:51:52.369Z,22.00
2023-03-15T03:52:24.268Z,22.00
2023-03-15T03:52:56.024Z,22.00
2023-03-15T03:53:27.784Z,22.00
2023-03-15T03:54:00.271Z,22.00
2023-03-15T03:54:32.263Z,22.00
2023-03-15T03:55:04.108Z,22.00
2023-03-15T03:55:35.832Z,22.00
2023-03-15T03:56:08.322Z,22.00
2023-03-15T03:56:40.342Z,22.00
2023-03-15T03:57:12.124Z,22.00
2023-03-15T03:57:44.091Z,22.00
2023-03-15T03:58:15.773Z,22.00
2023-03-15T03:58:47.456Z,22.00
2023-03-15T03:59:19.398Z,22.00
2023-03-15T03:59:51.178Z,22.33
2023-03-15T04:00:22.880Z,23.00
2023-03-15T04:00:54.629Z,23.00
2023-03-15T04:01:26.444Z,23.00
2023-03-15T04:01:58.326Z,23.00
2023-03-15T04:02:30.066Z,23.00
2023-03-15T04:03:02.157Z,23.00
2023-03-15T04:03:33.853Z,23.00
2023-03-15T04:04:05.979Z,23.00
2023-03-15T04:04:41.443Z,23.00
2023-03-15T04:05:13.283Z,23.33
2023-03-15T04:05:45.240Z,24.00
2023-03-15T04:06:17.343Z,24.00
2023-03-15T04:06:50.856Z,24.00
2023-03-15T04:07:22.656Z,25.00
2023-03-15T04:07:54.624Z,25.00
2023-03-15T04:08:27.425Z,26.00
2023-03-15T04:08:59.199Z,26.00
2023-03-15T04:09:31.002Z,26.67
2023-03-15T04:10:02.948Z,27.00
2023-03-15T04:10:35.194Z,27.00
2023-03-15T04:11:07.523Z,27.00
2023-03-15T04:11:43.351Z,27.00
2023-03-15T04:12:15.083Z,27.00
2023-03-15T04:12:46.854Z,27.00
2023-03-15T04:13:18.787Z,27.00
2023-03-15T04:13:50.547Z,27.00
2023-03-15T04:14:22.274Z,27.00
2023-03-15T04:14:54.008Z,27.00
2023-03-15T04:15:25.747Z,27.00
2023-03-15T04:15:57.967Z,27.00
2023-03-15T04:16:29.944Z,27.00
2023-03-15T04:17:03.953Z,27.00
2023-03-15T04:17:35.726Z,27.00
2023-03-15T04:18:07.442Z,27.00
2023-03-15T04:18:40.322Z,27.00
2023-03-15T04:19:13.002Z,27.00
2023-03-15T04:19:47.630Z,27.00
2023-03-15T04:20:20.462Z,27.00
2023-03-15T04:20:54.833Z,27.00
2023-03-15T04:21:26.694Z,27.00
2023-03-15T04:21:58.498Z,27.00
2023-03-15T04:22:30.191Z,27.67
2023-03-15T04:23:02.330Z,28.00
2023-03-15T04:23:34.644Z,28.00
2023-03-15T04:24:07.498Z,28.67
2023-03-15T04:24:39.971Z,29.00
2023-03-15T04:25:11.784Z,29.33
2023-03-15T04:25:43.512Z,30.00
2023-03-15T04:26:15.233Z,30.00
2023-03-15T04:26:46.998Z,30.67
2023-03-15T04:27:18.777Z,31.00
2023-03-15T04:27:58.855Z,31.00
2023-03-15T04:28:30.670Z,31.00
2023-03-15T04:29:03.329Z,31.00
2023-03-15T04:29:35.113Z,31.00
2023-03-15T04:30:07.245Z,31.00
2023-03-15T04:30:39.020Z,31.00
2023-03-15T04:31:14.685Z,32.00
2023-03-15T04:31:46.503Z,32.00
2023-03-15T04:32:18.588Z,32.00
2023-03-15T04:32:50.333Z,32.33
2023-03-15T04:33:24.620Z,33.00
2023-03-15T04:33:56.989Z,33.00
2023-03-15T04:34:30.331Z,33.00
2023-03-15T04:35:02.873Z,33.00
2023-03-15T04:35:36.322Z,33.00
2023-03-15T04:36:08.457Z,33.00
2023-03-15T04:36:40.289Z,33.00
2023-03-15T04:37:12.066Z,33.00
2023-03-15T04:37:43.823Z,33.00
2023-03-15T04:38:15.882Z,33.00
2023-03-15T04:38:48.643Z,33.00
2023-03-15T04:39:21.118Z,32.33
2023-03-15T04:39:52.937Z,32.00
2023-03-15T04:40:27.104Z,32.00
2023-03-15T04:40:58.870Z,32.00
2023-03-15T04:41:30.786Z,32.00
2023-03-15T04:42:03.275Z,32.00
2023-03-15T04:42:35.009Z,31.33
2023-03-15T04:43:06.797Z,31.00
2023-03-15T04:43:38.638Z,31.00
2023-03-15T04:44:10.354Z,31.00
2023-03-15T04:44:42.104Z,31.00
2023-03-15T04:45:13.816Z,31.00
2023-03-15T04:45:45.635Z,31.00
2023-03-15T04:46:17.452Z,31.00
2023-03-15T04:46:49.213Z,31.00
2023-03-15T04:47:22.824Z,31.00
2023-03-15T04:47:55.609Z,31.00
2023-03-15T04:48:27.321Z,32.00
2023-03-15T04:48:59.200Z,32.00
2023-03-15T04:49:31.857Z,32.00
2023-03-15T04:50:03.968Z,32.33
2023-03-15T04:50:35.818Z,33.00
2023-03-15T04:51:07.559Z,33.33
2023-03-15T04:51:39.409Z,34.00
2023-03-15T04:52:11.280Z,35.00
2023-03-15T04:52:43.229Z,36.00
2023-03-15T04:53:15.013Z,37.00
2023-03-15T04:53:46.834Z,37.33
2023-03-15T04:54:18.615Z,38.00
2023-03-15T04:54:50.724Z,38.00
2023-03-15T04:55:22.485Z,38.00
2023-03-15T04:55:54.417Z,38.67
2023-03-15T04:56:26.221Z,39.00
2023-03-15T04:56:57.995Z,39.00
2023-03-15T04:57:29.774Z,40.00
2023-03-15T04:58:01.883Z,40.00
2023-03-15T04:58:33.675Z,40.00
2023-03-15T04:59:05.381Z,40.67
2023-03-15T04:59:37.071Z,41.00
2023-03-15T05:00:12.040Z,41.67
2023-03-15T05:00:43.994Z,42.33
2023-03-15T05:01:15.981Z,43.00
2023-03-15T05:01:48.017Z,44.00
2023-03-15T05:02:19.807Z,44.00
2023-03-15T05:02:55.161Z,44.33
2023-03-15T05:03:26.938Z,44.67
2023-03-15T05:03:59.521Z,44.00
2023-03-15T05:04:31.297Z,44.00
2023-03-15T05:05:03.375Z,44.00
2023-03-15T05:05:35.110Z,44.00
2023-03-15T05:06:08.321Z,44.00
2023-03-15T05:06:40.136Z,44.00
2023-03-15T05:07:11.867Z,44.00
2023-03-15T05:07:43.911Z,44.00
2023-03-15T05:08:15.690Z,44.00
2023-03-15T05:08:47.504Z,44.00
2023-03-15T05:09:19.406Z,44.00
2023-03-15T05:09:51.342Z,44.00
2023-03-15T05:10:23.223Z,45.00
2023-03-15T05:10:55.051Z,45.00
2023-03-15T05:11:26.834Z,46.00
2023-03-15T05:11:58.524Z,46.00
2023-03-15T05:12:30.422Z,46.33
2023-03-15T05:13:02.302Z,47.00
2023-03-15T05:13:34.056Z,47.33
2023-03-15T05:14:05.790Z,48.00
2023-03-15T05:14:37.519Z,48.00
2023-03-15T05:15:09.979Z,48.00
2023-03-15T05:15:41.800Z,48.00
2023-03-15T05:16:13.593Z,48.00
2023-03-15T05:16:47.558Z,48.00
2023-03-15T05:17:19.343Z,48.00
2023-03-15T05:17:55.114Z,48.00
2023-03-15T05:18:26.876Z,49.00
2023-03-15T05:18:58.579Z,49.00
2023-03-15T05:19:34.731Z,49.33
2023-03-15T05:20:13.218Z,50.00
2023-03-15T05:20:44.969Z,50.00
2023-03-15T05:21:16.867Z,50.00
2023-03-15T05:21:48.582Z,51.00
2023-03-15T05:22:25.950Z,51.00
2023-03-15T05:22:58.946Z,51.67
2023-03-15T05:23:32.519Z,52.33
2023-03-15T05:24:04.524Z,55.00
2023-03-15T05:24:36.288Z,56.67
2023-03-15T05:25:10.245Z,57.33
2023-03-15T05:25:42.051Z,57.00
2023-03-15T05:26:14.451Z,57.00
2023-03-15T05:26:46.589Z,57.00
2023-03-15T05:27:18.310Z,56.67
2023-03-15T05:27:50.240Z,56.00
2023-03-15T05:28:24.233Z,56.00
2023-03-15T05:28:55.975Z,56.00
2023-03-15T05:29:27.841Z,55.00
2023-03-15T05:29:59.693Z,55.00
2023-03-15T05:30:31.805Z,55.00
2023-03-15T05:31:03.861Z,55.00
2023-03-15T05:31:37.280Z,55.00
2023-03-15T05:32:09.261Z,55.00
2023-03-15T05:32:44.875Z,54.33
2023-03-15T05:33:16.705Z,54.00
2023-03-15T05:33:48.539Z,53.67
2023-03-15T05:34:24.217Z,53.00
2023-03-15T05:34:56.086Z,53.00
2023-03-15T05:35:27.878Z,53.00
2023-03-15T05:35:59.990Z,53.00
2023-03-15T05:36:32.707Z,53.00
2023-03-15T05:37:04.599Z,52.00
2023-03-15T05:37:36.419Z,52.00
2023-03-15T05:38:08.156Z,52.00
2023-03-15T05:38:39.943Z,52.00
2023-03-15T05:39:16.798Z,52.00
2023-03-15T05:39:49.129Z,52.00
2023-03-15T05:40:21.378Z,52.00
2023-03-15T05:40:53.806Z,53.00
2023-03-15T05:41:25.786Z,53.00
2023-03-15T05:41:57.653Z,53.00
2023-03-15T05:42:29.616Z,54.00
2023-03-15T05:43:01.543Z,54.00
2023-03-15T05:43:33.276Z,55.00
2023-03-15T05:44:05.243Z,56.00
2023-03-15T05:44:37.050Z,57.33
2023-03-15T05:45:09.427Z,58.33
2023-03-15T05:45:41.312Z,59.00
2023-03-15T05:46:13.797Z,59.67
2023-03-15T05:46:45.672Z,60.00
2023-03-15T05:47:17.693Z,60.00
2023-03-15T05:47:49.726Z,60.67
2023-03-15T05:48:21.577Z,61.00
2023-03-15T05:48:53.911Z,61.00
2023-03-15T05:49:31.858Z,61.67
2023-03-15T05:50:05.229Z,62.00
2023-03-15T05:50:37.026Z,62.00
2023-03-15T05:51:09.031Z,63.00
2023-03-15T05:51:41.826Z,63.00
2023-03-15T05:52:13.923Z,63.00
2023-03-15T05:52:45.999Z,64.00
2023-03-15T05:53:17.811Z,65.00
2023-03-15T05:53:49.819Z,66.00
2023-03-15T05:54:21.592Z,67.33
2023-03-15T05:54:53.591Z,68.33
2023-03-15T05:55:25.740Z,69.33
2023-03-15T05:55:57.516Z,69.00
2023-03-15T05:56:29.680Z,69.00
2023-03-15T05:57:01.475Z,69.00
2023-03-15T05:57:33.378Z,69.00
2023-03-15T05:58:06.512Z,69.33
2023-03-15T05:58:39.204Z,70.00
2023-03-15T05:59:11.012Z,70.00
2023-03-15T05:59:42.949Z,70.00
2023-03-15T06:00:16.325Z,71.00
2023-03-15T06:00:49.378Z,71.67
2023-03-15T06:01:21.264Z,73.00
2023-03-15T06:01:53.119Z,74.67
2023-03-15T06:02:24.914Z,75.67
2023-03-15T06:02:57.993Z,77.00
2023-03-15T06:03:31.674Z,78.00
2023-03-15T06:04:03.654Z,78.67
2023-03-15T06:04:36.752Z,79.33
2023-03-15T06:05:09.483Z,80.00
2023-03-15T06:05:41.378Z,81.33
2023-03-15T06:06:13.233Z,82.00
2023-03-15T06:06:45.052Z,82.00
2023-03-15T06:07:16.947Z,83.33
2023-03-15T06:07:48.706Z,84.00
2023-03-15T06:08:20.453Z,84.00
2023-03-15T06:08:52.222Z,84.00
2023-03-15T06:09:24.010Z,84.00
2023-03-15T06:09:55.928Z,85.33
2023-03-15T06:10:27.728Z,86.67
2023-03-15T06:10:59.577Z,87.67
2023-03-15T06:11:31.505Z,88.00
2023-03-15T06:12:05.425Z,91.33
2023-03-15T06:12:38.112Z,95.00
2023-03-15T06:13:10.033Z,96.33
2023-03-15T06:13:41.844Z,95.33
2023-03-15T06:14:13.763Z,95.00
2023-03-15T06:14:46.190Z,95.00
2023-03-15T06:15:19.771Z,95.33
2023-03-15T06:15:51.603Z,94.33
2023-03-15T06:16:23.497Z,94.00
2023-03-15T06:16:55.534Z,93.33
2023-03-15T06:17:27.551Z,93.00
2023-03-15T06:17:59.443Z,93.00
2023-03-15T06:18:31.300Z,93.00
2023-03-15T06:19:03.863Z,93.33
2023-03-15T06:19:37.409Z,97.67
2023-03-15T06:20:10.532Z,106.33
2023-03-15T06:20:42.449Z,110.00
2023-03-15T06:21:14.386Z,114.00
2023-03-15T06:21:46.168Z,117.33
2023-03-15T06:22:20.683Z,116.67
2023-03-15T06:22:53.196Z,118.00
2023-03-15T06:23:24.977Z,114.67
2023-03-15T06:23:56.800Z,111.67
2023-03-15T06:24:28.601Z,110.33
2023-03-15T06:25:00.533Z,109.67
2023-03-15T06:25:32.495Z,109.00
2023-03-15T06:26:04.470Z,108.00
2023-03-15T06:26:36.206Z,107.33
2023-03-15T06:27:09.418Z,107.00
2023-03-15T06:27:41.290Z,108.67
2023-03-15T06:28:13.202Z,112.00
2023-03-15T06:28:45.625Z,114.00
2023-03-15T06:29:17.438Z,120.00
2023-03-15T06:29:50.794Z,123.33
2023-03-15T06:30:22.552Z,130.33
2023-03-15T06:30:54.521Z,128.00
2023-03-15T06:31:26.435Z,127.67
2023-03-15T06:31:58.345Z,127.00
2023-03-15T06:32:30.168Z,125.67
2023-03-15T06:33:02.003Z,123.33
2023-03-15T06:33:34.060Z,122.00
2023-03-15T06:34:06.248Z,121.00
2023-03-15T06:34:38.101Z,121.00
2023-03-15T06:35:10.175Z,121.00
2023-03-15T06:35:42.794Z,120.33
2023-03-15T06:36:15.432Z,120.00
2023-03-15T06:36:48.006Z,119.67
2023-03-15T06:37:29.034Z,120.00
2023-03-15T06:38:06.203Z,128.33
2023-03-15T06:38:38.026Z,155.33
2023-03-15T06:39:12.749Z,165.33
2023-03-15T06:39:44.923Z,165.33
2023-03-15T06:40:16.887Z,165.00
2023-03-15T06:40:48.769Z,162.33
2023-03-15T06:41:21.597Z,159.00
2023-03-15T06:41:59.390Z,153.00
2023-03-15T06:42:32.586Z,149.00
2023-03-15T06:43:06.815Z,148.33
2023-03-15T06:43:39.059Z,147.33
2023-03-15T06:44:10.922Z,146.67
2023-03-15T06:44:43.846Z,145.33
2023-03-15T06:45:16.611Z,142.67
2023-03-15T06:45:48.853Z,137.00
2023-03-15T06:46:20.829Z,131.00
2023-03-15T06:46:52.649Z,128.33
2023-03-15T06:47:24.448Z,128.33
2023-03-15T06:47:56.285Z,130.00
2023-03-15T06:48:29.733Z,133.67
2023-03-15T06:49:01.699Z,139.00
2023-03-15T06:49:33.519Z,146.33
2023-03-15T06:50:06.613Z,151.00
2023-03-15T06:50:46.897Z,148.00
2023-03-15T06:51:19.646Z,146.00
2023-03-15T06:51:51.790Z,144.33
2023-03-15T06:52:23.942Z,142.00
2023-03-15T06:52:57.012Z,139.00
2023-03-15T06:53:28.862Z,137.00
2023-03-15T06:54:00.787Z,134.67
2023-03-15T06:54:32.679Z,131.67
2023-03-15T06:55:05.365Z,126.67
2023-03-15T06:55:37.100Z,122.33
2023-03-15T06:56:08.972Z,120.33
2023-03-15T06:56:40.794Z,119.33
2023-03-15T06:57:12.740Z,119.00
2023-03-15T06:57:45.611Z,120.00
2023-03-15T06:58:17.405Z,121.00
2023-03-15T06:58:49.353Z,122.33
2023-03-15T06:59:21.296Z,124.00
2023-03-15T06:59:54.204Z,126.33
2023-03-15T07:00:26.371Z,127.00
2023-03-15T07:00:58.203Z,127.00
2023-03-15T07:01:30.403Z,128.33
2023-03-15T07:02:02.179Z,129.67
2023-03-15T07:02:37.706Z,131.67
2023-03-15T07:03:09.479Z,132.00
2023-03-15T07:03:42.359Z,133.67
2023-03-15T07:04:14.227Z,136.67
2023-03-15T07:04:46.153Z,136.67
2023-03-15T07:05:18.000Z,135.00
2023-03-15T07:05:52.679Z,132.00
2023-03-15T07:06:24.454Z,127.00
2023-03-15T07:06:56.187Z,122.00
2023-03-15T07:07:27.953Z,119.33